sensor_id;sensor_type;location;lat;lon;timestamp;pressure;altitude;pressure_sealevel;temperature;humidity
24336;BME280;33098;52.400;16.880;2023-01-28T00:00:28;101735.94;;;2.19;75.77
24336;BME280;33098;52.400;16.880;2023-01-28T00:03:24;101733.33;;;2.18;75.56
24336;BME280;33098;52.400;16.880;2023-01-28T00:06:00;101731.30;;;2.15;75.39
24336;BME280;33098;52.400;16.880;2023-01-28T00:08:29;101731.95;;;2.09;75.35
24336;BME280;33098;52.400;16.880;2023-01-28T00:11:03;101728.06;;;2.10;75.34
24336;BME280;33098;52.400;16.880;2023-01-28T00:13:32;101725.20;;;2.13;75.31
24336;BME280;33098;52.400;16.880;2023-01-28T00:16:01;101729.67;;;2.17;75.44
24336;BME280;33098;52.400;16.880;2023-01-28T00:18:33;101730.98;;;2.21;75.53
24336;BME280;33098;52.400;16.880;2023-01-28T00:21:06;101732.16;;;2.23;75.32
24336;BME280;33098;52.400;16.880;2023-01-28T00:23:38;101732.54;;;2.22;75.52
24336;BME280;33098;52.400;16.880;2023-01-28T00:26:11;101736.40;;;2.22;75.16
24336;BME280;33098;52.400;16.880;2023-01-28T00:28:43;101734.63;;;2.23;75.26
24336;BME280;33098;52.400;16.880;2023-01-28T00:31:19;101731.30;;;2.22;75.25
24336;BME280;33098;52.400;16.880;2023-01-28T00:33:48;101729.61;;;2.20;74.98
24336;BME280;33098;52.400;16.880;2023-01-28T00:36:17;101734.89;;;2.19;75.02
24336;BME280;33098;52.400;16.880;2023-01-28T00:38:52;101733.44;;;2.22;75.06
24336;BME280;33098;52.400;16.880;2023-01-28T00:41:25;101733.23;;;2.22;74.88
24336;BME280;33098;52.400;16.880;2023-01-28T00:43:55;101734.97;;;2.23;74.98
24336;BME280;33098;52.400;16.880;2023-01-28T00:46:23;101735.05;;;2.19;74.68
24336;BME280;33098;52.400;16.880;2023-01-28T00:48:53;101741.40;;;2.17;74.63
24336;BME280;33098;52.400;16.880;2023-01-28T00:51:21;101740.62;;;2.12;74.71
24336;BME280;33098;52.400;16.880;2023-01-28T00:53:49;101740.48;;;2.11;74.67
24336;BME280;33098;52.400;16.880;2023-01-28T00:56:17;101738.20;;;2.11;74.52
24336;BME280;33098;52.400;16.880;2023-01-28T00:58:46;101736.52;;;2.08;74.45
24336;BME280;33098;52.400;16.880;2023-01-28T01:01:24;101734.50;;;2.05;74.27
24336;BME280;33098;52.400;16.880;2023-01-28T01:03:52;101734.50;;;2.05;74.30
24336;BME280;33098;52.400;16.880;2023-01-28T01:06:39;101738.67;;;2.06;74.28
24336;BME280;33098;52.400;16.880;2023-01-28T01:09:10;101742.18;;;2.06;74.48
24336;BME280;33098;52.400;16.880;2023-01-28T01:11:40;101737.38;;;2.09;74.19
24336;BME280;33098;52.400;16.880;2023-01-28T01:14:08;101736.79;;;2.12;74.26
24336;BME280;33098;52.400;16.880;2023-01-28T01:16:36;101737.94;;;2.16;74.33
24336;BME280;33098;52.400;16.880;2023-01-28T01:19:09;101737.50;;;2.11;73.91
24336;BME280;33098;52.400;16.880;2023-01-28T01:21:37;101740.61;;;2.05;73.73
24336;BME280;33098;52.400;16.880;2023-01-28T01:24:07;101746.39;;;2.05;73.88
24336;BME280;33098;52.400;16.880;2023-01-28T01:26:34;101741.71;;;2.03;73.82
24336;BME280;33098;52.400;16.880;2023-01-28T01:29:01;101742.84;;;2.00;73.82
24336;BME280;33098;52.400;16.880;2023-01-28T01:31:34;101746.37;;;1.99;73.79
24336;BME280;33098;52.400;16.880;2023-01-28T01:34:02;101744.27;;;1.98;73.89
24336;BME280;33098;52.400;16.880;2023-01-28T01:36:30;101744.22;;;2.01;73.94
24336;BME280;33098;52.400;16.880;2023-01-28T01:39:00;101746.69;;;2.00;73.59
24336;BME280;33098;52.400;16.880;2023-01-28T01:41:30;101740.64;;;1.97;73.61
24336;BME280;33098;52.400;16.880;2023-01-28T01:44:01;101743.85;;;1.93;73.53
24336;BME280;33098;52.400;16.880;2023-01-28T01:46:44;101743.52;;;1.92;73.53
24336;BME280;33098;52.400;16.880;2023-01-28T01:49:25;101736.46;;;1.87;73.67
24336;BME280;33098;52.400;16.880;2023-01-28T01:52:10;101734.52;;;1.88;73.61
24336;BME280;33098;52.400;16.880;2023-01-28T01:54:40;101730.83;;;1.89;73.62
24336;BME280;33098;52.400;16.880;2023-01-28T01:57:13;101728.76;;;1.87;73.71
24336;BME280;33098;52.400;16.880;2023-01-28T01:59:42;101729.66;;;1.86;73.53
24336;BME280;33098;52.400;16.880;2023-01-28T02:02:13;101727.73;;;1.86;73.44
24336;BME280;33098;52.400;16.880;2023-01-28T02:04:44;101731.52;;;1.89;73.67
24336;BME280;33098;52.400;16.880;2023-01-28T02:07:17;101728.39;;;1.88;73.60
24336;BME280;33098;52.400;16.880;2023-01-28T02:09:53;101729.98;;;1.87;73.51
24336;BME280;33098;52.400;16.880;2023-01-28T02:12:24;101738.34;;;1.89;73.39
24336;BME280;33098;52.400;16.880;2023-01-28T02:14:59;101739.55;;;1.90;73.60
24336;BME280;33098;52.400;16.880;2023-01-28T02:17:29;101739.48;;;1.92;73.60
24336;BME280;33098;52.400;16.880;2023-01-28T02:20:03;101738.92;;;1.95;73.52
24336;BME280;33098;52.400;16.880;2023-01-28T02:31:59;101742.30;;;1.92;73.40
24336;BME280;33098;52.400;16.880;2023-01-28T02:34:37;101744.50;;;1.97;73.38
24336;BME280;33098;52.400;16.880;2023-01-28T02:37:20;101743.09;;;1.96;73.32
24336;BME280;33098;52.400;16.880;2023-01-28T02:39:52;101740.70;;;1.93;73.10
24336;BME280;33098;52.400;16.880;2023-01-28T02:42:32;101742.46;;;1.93;73.29
24336;BME280;33098;52.400;16.880;2023-01-28T02:45:00;101744.06;;;1.92;73.17
24336;BME280;33098;52.400;16.880;2023-01-28T02:47:30;101747.74;;;1.92;73.15
24336;BME280;33098;52.400;16.880;2023-01-28T02:50:19;101744.42;;;1.91;73.06
24336;BME280;33098;52.400;16.880;2023-01-28T02:58:25;101742.02;;;1.89;72.81
24336;BME280;33098;52.400;16.880;2023-01-28T03:06:21;101747.40;;;1.83;72.84
24336;BME280;33098;52.400;16.880;2023-01-28T03:09:02;101748.03;;;1.86;72.76
24336;BME280;33098;52.400;16.880;2023-01-28T03:14:59;101751.53;;;1.78;72.32
24336;BME280;33098;52.400;16.880;2023-01-28T03:17:54;101752.16;;;1.73;72.38
24336;BME280;33098;52.400;16.880;2023-01-28T03:20:59;101750.25;;;1.72;72.59
24336;BME280;33098;52.400;16.880;2023-01-28T03:30:16;101756.61;;;1.69;72.59
24336;BME280;33098;52.400;16.880;2023-01-28T03:33:09;101756.27;;;1.69;72.58
24336;BME280;33098;52.400;16.880;2023-01-28T03:35:59;101758.50;;;1.71;72.60
24336;BME280;33098;52.400;16.880;2023-01-28T03:38:56;101762.52;;;1.72;72.62
24336;BME280;33098;52.400;16.880;2023-01-28T03:41:25;101765.32;;;1.72;72.51
24336;BME280;33098;52.400;16.880;2023-01-28T03:44:00;101772.88;;;1.70;72.45
24336;BME280;33098;52.400;16.880;2023-01-28T03:46:49;101775.86;;;1.69;72.63
24336;BME280;33098;52.400;16.880;2023-01-28T03:49:17;101766.11;;;1.67;72.35
24336;BME280;33098;52.400;16.880;2023-01-28T03:51:45;101765.11;;;1.64;72.45
24336;BME280;33098;52.400;16.880;2023-01-28T03:54:13;101768.91;;;1.67;72.61
24336;BME280;33098;52.400;16.880;2023-01-28T03:56:45;101766.34;;;1.73;72.58
24336;BME280;33098;52.400;16.880;2023-01-28T03:59:14;101764.50;;;1.77;72.66
24336;BME280;33098;52.400;16.880;2023-01-28T04:01:43;101770.91;;;1.80;72.66
24336;BME280;33098;52.400;16.880;2023-01-28T04:04:11;101768.48;;;1.79;72.50
24336;BME280;33098;52.400;16.880;2023-01-28T04:06:53;101764.67;;;1.77;72.42
24336;BME280;33098;52.400;16.880;2023-01-28T04:09:24;101766.88;;;1.72;72.09
24336;BME280;33098;52.400;16.880;2023-01-28T04:12:19;101769.89;;;1.70;72.18
24336;BME280;33098;52.400;16.880;2023-01-28T04:14:49;101776.77;;;1.67;72.21
24336;BME280;33098;52.400;16.880;2023-01-28T04:17:28;101779.48;;;1.63;71.84
24336;BME280;33098;52.400;16.880;2023-01-28T04:20:00;101782.72;;;1.59;72.00
24336;BME280;33098;52.400;16.880;2023-01-28T04:22:35;101787.77;;;1.52;71.71
24336;BME280;33098;52.400;16.880;2023-01-28T04:25:06;101785.28;;;1.53;71.62
24336;BME280;33098;52.400;16.880;2023-01-28T04:27:39;101789.44;;;1.55;71.68
24336;BME280;33098;52.400;16.880;2023-01-28T04:30:17;101788.30;;;1.51;71.41
24336;BME280;33098;52.400;16.880;2023-01-28T04:32:59;101789.42;;;1.46;71.41
24336;BME280;33098;52.400;16.880;2023-01-28T04:35:46;101791.38;;;1.45;71.48
24336;BME280;33098;52.400;16.880;2023-01-28T04:38:34;101791.86;;;1.47;71.56
24336;BME280;33098;52.400;16.880;2023-01-28T04:41:26;101788.84;;;1.50;71.33
24336;BME280;33098;52.400;16.880;2023-01-28T04:43:56;101788.73;;;1.47;71.25
24336;BME280;33098;52.400;16.880;2023-01-28T04:46:45;101788.83;;;1.42;71.24
24336;BME280;33098;52.400;16.880;2023-01-28T04:49:24;101790.05;;;1.41;71.22
24336;BME280;33098;52.400;16.880;2023-01-28T04:52:18;101786.39;;;1.41;71.30
24336;BME280;33098;52.400;16.880;2023-01-28T04:55:08;101783.96;;;1.40;71.15
24336;BME280;33098;52.400;16.880;2023-01-28T04:57:39;101791.29;;;1.40;71.08
24336;BME280;33098;52.400;16.880;2023-01-28T05:00:08;101787.84;;;1.48;71.02
24336;BME280;33098;52.400;16.880;2023-01-28T05:02:41;101783.05;;;1.52;71.01
24336;BME280;33098;52.400;16.880;2023-01-28T05:05:12;101780.01;;;1.55;70.96
24336;BME280;33098;52.400;16.880;2023-01-28T05:08:04;101782.06;;;1.57;70.84
24336;BME280;33098;52.400;16.880;2023-01-28T05:10:34;101781.66;;;1.59;70.83
24336;BME280;33098;52.400;16.880;2023-01-28T05:13:03;101784.34;;;1.58;70.71
24336;BME280;33098;52.400;16.880;2023-01-28T05:15:31;101781.35;;;1.57;70.55
24336;BME280;33098;52.400;16.880;2023-01-28T05:17:59;101789.94;;;1.57;70.59
24336;BME280;33098;52.400;16.880;2023-01-28T05:20:31;101787.69;;;1.55;70.60
24336;BME280;33098;52.400;16.880;2023-01-28T05:23:02;101790.91;;;1.51;70.31
24336;BME280;33098;52.400;16.880;2023-01-28T05:25:41;101797.10;;;1.48;70.26
24336;BME280;33098;52.400;16.880;2023-01-28T05:28:16;101799.95;;;1.46;70.10
24336;BME280;33098;52.400;16.880;2023-01-28T05:30:47;101799.09;;;1.45;70.01
24336;BME280;33098;52.400;16.880;2023-01-28T05:33:19;101796.20;;;1.41;70.08
24336;BME280;33098;52.400;16.880;2023-01-28T05:35:47;101802.91;;;1.37;69.88
24336;BME280;33098;52.400;16.880;2023-01-28T05:38:18;101803.23;;;1.28;69.66
24336;BME280;33098;52.400;16.880;2023-01-28T05:40:52;101804.57;;;1.23;69.52
24336;BME280;33098;52.400;16.880;2023-01-28T05:43:20;101805.90;;;1.27;69.72
24336;BME280;33098;52.400;16.880;2023-01-28T05:46:20;101812.67;;;1.29;69.70
24336;BME280;33098;52.400;16.880;2023-01-28T05:49:07;101819.84;;;1.29;69.64
24336;BME280;33098;52.400;16.880;2023-01-28T05:51:38;101817.64;;;1.26;69.59
24336;BME280;33098;52.400;16.880;2023-01-28T05:54:15;101816.89;;;1.18;69.31
24336;BME280;33098;52.400;16.880;2023-01-28T05:56:49;101819.77;;;1.13;69.37
24336;BME280;33098;52.400;16.880;2023-01-28T05:59:23;101825.45;;;1.08;69.22
24336;BME280;33098;52.400;16.880;2023-01-28T06:01:57;101830.80;;;1.02;69.15
24336;BME280;33098;52.400;16.880;2023-01-28T06:04:29;101835.95;;;0.98;69.16
24336;BME280;33098;52.400;16.880;2023-01-28T06:06:58;101841.54;;;0.98;69.06
24336;BME280;33098;52.400;16.880;2023-01-28T06:09:27;101835.38;;;1.00;69.21
24336;BME280;33098;52.400;16.880;2023-01-28T06:11:55;101829.25;;;1.00;69.04
24336;BME280;33098;52.400;16.880;2023-01-28T06:14:30;101832.33;;;1.04;69.25
24336;BME280;33098;52.400;16.880;2023-01-28T06:17:23;101833.98;;;1.10;69.25
24336;BME280;33098;52.400;16.880;2023-01-28T06:20:05;101836.88;;;1.14;69.09
24336;BME280;33098;52.400;16.880;2023-01-28T06:22:35;101837.33;;;1.09;69.13
24336;BME280;33098;52.400;16.880;2023-01-28T06:25:06;101840.40;;;1.04;68.94
24336;BME280;33098;52.400;16.880;2023-01-28T06:27:36;101840.14;;;0.98;68.87
24336;BME280;33098;52.400;16.880;2023-01-28T06:30:05;101840.17;;;0.95;68.83
24336;BME280;33098;52.400;16.880;2023-01-28T06:32:33;101845.79;;;0.94;68.79
24336;BME280;33098;52.400;16.880;2023-01-28T06:35:01;101843.34;;;0.94;68.87
24336;BME280;33098;52.400;16.880;2023-01-28T06:37:29;101845.62;;;0.93;68.62
24336;BME280;33098;52.400;16.880;2023-01-28T06:40:05;101845.05;;;0.95;68.60
24336;BME280;33098;52.400;16.880;2023-01-28T06:42:39;101846.97;;;0.97;68.79
24336;BME280;33098;52.400;16.880;2023-01-28T06:45:08;101856.06;;;0.96;68.73
24336;BME280;33098;52.400;16.880;2023-01-28T06:47:38;101859.40;;;0.96;68.72
24336;BME280;33098;52.400;16.880;2023-01-28T06:50:09;101862.88;;;0.98;68.55
24336;BME280;33098;52.400;16.880;2023-01-28T06:52:40;101855.89;;;0.96;68.50
24336;BME280;33098;52.400;16.880;2023-01-28T06:55:11;101857.98;;;0.97;68.43
24336;BME280;33098;52.400;16.880;2023-01-28T06:57:40;101858.14;;;0.97;68.51
24336;BME280;33098;52.400;16.880;2023-01-28T07:00:12;101861.73;;;1.02;68.50
24336;BME280;33098;52.400;16.880;2023-01-28T07:02:41;101858.11;;;1.10;68.71
24336;BME280;33098;52.400;16.880;2023-01-28T07:05:13;101862.42;;;1.13;68.43
24336;BME280;33098;52.400;16.880;2023-01-28T07:07:41;101860.64;;;1.15;68.45
24336;BME280;33098;52.400;16.880;2023-01-28T07:10:09;101865.27;;;1.22;68.50
24336;BME280;33098;52.400;16.880;2023-01-28T07:12:42;101865.21;;;1.26;68.23
24336;BME280;33098;52.400;16.880;2023-01-28T07:15:14;101865.75;;;1.24;68.19
24336;BME280;33098;52.400;16.880;2023-01-28T07:17:44;101871.52;;;1.25;68.15
24336;BME280;33098;52.400;16.880;2023-01-28T07:20:14;101869.19;;;1.28;68.06
24336;BME280;33098;52.400;16.880;2023-01-28T07:22:54;101873.24;;;1.25;68.01
24336;BME280;33098;52.400;16.880;2023-01-28T07:25:21;101873.33;;;1.31;68.34
24336;BME280;33098;52.400;16.880;2023-01-28T07:27:52;101868.15;;;1.37;68.14
24336;BME280;33098;52.400;16.880;2023-01-28T07:30:20;101867.73;;;1.41;68.26
24336;BME280;33098;52.400;16.880;2023-01-28T07:32:56;101866.55;;;1.49;68.13
24336;BME280;33098;52.400;16.880;2023-01-28T07:35:25;101866.45;;;1.55;68.28
24336;BME280;33098;52.400;16.880;2023-01-28T07:37:59;101860.37;;;1.62;68.20
24336;BME280;33098;52.400;16.880;2023-01-28T07:40:29;101862.70;;;1.68;68.14
24336;BME280;33098;52.400;16.880;2023-01-28T07:43:01;101863.27;;;1.74;68.11
24336;BME280;33098;52.400;16.880;2023-01-28T07:45:36;101859.52;;;1.79;68.05
24336;BME280;33098;52.400;16.880;2023-01-28T07:48:06;101863.27;;;1.85;67.89
24336;BME280;33098;52.400;16.880;2023-01-28T07:50:39;101855.94;;;1.84;67.76
24336;BME280;33098;52.400;16.880;2023-01-28T07:53:10;101859.40;;;1.85;67.80
24336;BME280;33098;52.400;16.880;2023-01-28T07:55:38;101859.65;;;1.90;67.67
24336;BME280;33098;52.400;16.880;2023-01-28T07:58:10;101862.52;;;1.95;67.63
24336;BME280;33098;52.400;16.880;2023-01-28T08:00:38;101863.56;;;1.96;67.42
24336;BME280;33098;52.400;16.880;2023-01-28T08:03:10;101861.73;;;1.91;67.47
24336;BME280;33098;52.400;16.880;2023-01-28T08:05:45;101861.20;;;1.91;67.22
24336;BME280;33098;52.400;16.880;2023-01-28T08:08:14;101862.13;;;1.89;67.27
24336;BME280;33098;52.400;16.880;2023-01-28T08:10:42;101856.24;;;1.85;67.00
24336;BME280;33098;52.400;16.880;2023-01-28T08:13:15;101859.77;;;1.85;67.13
24336;BME280;33098;52.400;16.880;2023-01-28T08:15:44;101863.23;;;1.95;67.54
24336;BME280;33098;52.400;16.880;2023-01-28T08:18:13;101861.59;;;2.06;67.61
24336;BME280;33098;52.400;16.880;2023-01-28T08:20:41;101852.98;;;2.16;67.34
24336;BME280;33098;52.400;16.880;2023-01-28T08:23:17;101855.79;;;2.17;67.09
24336;BME280;33098;52.400;16.880;2023-01-28T08:25:48;101851.91;;;2.18;67.11
24336;BME280;33098;52.400;16.880;2023-01-28T08:28:16;101850.36;;;2.25;67.18
24336;BME280;33098;52.400;16.880;2023-01-28T08:30:48;101850.86;;;2.26;66.99
24336;BME280;33098;52.400;16.880;2023-01-28T08:33:17;101847.98;;;2.30;67.02
24336;BME280;33098;52.400;16.880;2023-01-28T08:35:45;101855.64;;;2.32;67.08
24336;BME280;33098;52.400;16.880;2023-01-28T08:38:13;101857.71;;;2.33;66.86
24336;BME280;33098;52.400;16.880;2023-01-28T08:40:46;101858.81;;;2.31;66.75
24336;BME280;33098;52.400;16.880;2023-01-28T08:43:18;101858.58;;;2.34;66.83
24336;BME280;33098;52.400;16.880;2023-01-28T08:45:48;101861.43;;;2.32;66.37
24336;BME280;33098;52.400;16.880;2023-01-28T08:48:17;101859.57;;;2.28;66.50
24336;BME280;33098;52.400;16.880;2023-01-28T08:50:45;101860.95;;;2.21;66.24
24336;BME280;33098;52.400;16.880;2023-01-28T08:53:17;101864.48;;;2.19;66.32
24336;BME280;33098;52.400;16.880;2023-01-28T08:55:47;101867.35;;;2.25;66.49
24336;BME280;33098;52.400;16.880;2023-01-28T08:58:21;101865.61;;;2.32;66.53
24336;BME280;33098;52.400;16.880;2023-01-28T09:00:49;101871.08;;;2.39;66.63
24336;BME280;33098;52.400;16.880;2023-01-28T09:03:19;101871.59;;;2.40;66.48
24336;BME280;33098;52.400;16.880;2023-01-28T09:05:50;101875.11;;;2.39;66.49
24336;BME280;33098;52.400;16.880;2023-01-28T09:08:26;101880.38;;;2.39;66.43
24336;BME280;33098;52.400;16.880;2023-01-28T09:10:57;101875.22;;;2.34;66.24
24336;BME280;33098;52.400;16.880;2023-01-28T09:13:25;101878.58;;;2.33;66.15
24336;BME280;33098;52.400;16.880;2023-01-28T09:15:55;101881.96;;;2.30;65.96
24336;BME280;33098;52.400;16.880;2023-01-28T09:18:22;101885.68;;;2.20;65.95
24336;BME280;33098;52.400;16.880;2023-01-28T09:20:49;101878.89;;;2.18;65.85
24336;BME280;33098;52.400;16.880;2023-01-28T09:23:17;101882.85;;;2.12;65.81
24336;BME280;33098;52.400;16.880;2023-01-28T09:25:44;101879.85;;;2.13;65.99
24336;BME280;33098;52.400;16.880;2023-01-28T09:28:14;101883.27;;;2.18;66.28
24336;BME280;33098;52.400;16.880;2023-01-28T09:30:48;101889.29;;;2.23;66.20
24336;BME280;33098;52.400;16.880;2023-01-28T09:33:17;101887.67;;;2.25;66.02
24336;BME280;33098;52.400;16.880;2023-01-28T09:35:45;101891.22;;;2.23;65.83
24336;BME280;33098;52.400;16.880;2023-01-28T09:38:13;101875.57;;;2.17;65.91
24336;BME280;33098;52.400;16.880;2023-01-28T09:40:43;101875.88;;;2.10;65.86
24336;BME280;33098;52.400;16.880;2023-01-28T09:46:02;101876.03;;;2.20;65.97
24336;BME280;33098;52.400;16.880;2023-01-28T09:48:39;101872.02;;;2.27;66.08
24336;BME280;33098;52.400;16.880;2023-01-28T09:51:28;101874.56;;;2.32;66.05
24336;BME280;33098;52.400;16.880;2023-01-28T09:54:01;101872.21;;;2.27;65.88
24336;BME280;33098;52.400;16.880;2023-01-28T09:56:38;101870.23;;;2.21;65.80
24336;BME280;33098;52.400;16.880;2023-01-28T10:04:29;101872.27;;;2.07;66.13
24336;BME280;33098;52.400;16.880;2023-01-28T10:07:27;101871.69;;;2.01;65.83
24336;BME280;33098;52.400;16.880;2023-01-28T10:10:26;101881.62;;;1.95;65.83
24336;BME280;33098;52.400;16.880;2023-01-28T10:13:26;101879.84;;;1.88;65.99
24336;BME280;33098;52.400;16.880;2023-01-28T10:19:18;101882.48;;;1.77;65.99
24336;BME280;33098;52.400;16.880;2023-01-28T10:26:51;101885.20;;;1.72;66.22
24336;BME280;33098;52.400;16.880;2023-01-28T10:29:23;101891.07;;;1.67;66.12
24336;BME280;33098;52.400;16.880;2023-01-28T10:31:58;101894.80;;;1.64;66.37
24336;BME280;33098;52.400;16.880;2023-01-28T10:34:28;101894.16;;;1.69;66.36
24336;BME280;33098;52.400;16.880;2023-01-28T10:36:56;101894.13;;;1.82;66.29
24336;BME280;33098;52.400;16.880;2023-01-28T10:39:29;101898.45;;;1.94;66.57
24336;BME280;33098;52.400;16.880;2023-01-28T10:42:00;101897.02;;;1.96;66.00
24336;BME280;33098;52.400;16.880;2023-01-28T10:44:39;101898.24;;;1.96;66.03
24336;BME280;33098;52.400;16.880;2023-01-28T10:47:13;101898.79;;;2.03;66.01
24336;BME280;33098;52.400;16.880;2023-01-28T10:49:52;101898.70;;;2.08;65.95
24336;BME280;33098;52.400;16.880;2023-01-28T10:52:24;101898.91;;;2.14;65.66
24336;BME280;33098;52.400;16.880;2023-01-28T10:55:04;101892.09;;;2.14;65.75
24336;BME280;33098;52.400;16.880;2023-01-28T10:57:32;101890.92;;;2.20;65.70
24336;BME280;33098;52.400;16.880;2023-01-28T11:00:28;101891.79;;;2.29;65.66
24336;BME280;33098;52.400;16.880;2023-01-28T11:03:00;101892.52;;;2.27;65.28
24336;BME280;33098;52.400;16.880;2023-01-28T11:05:29;101894.73;;;2.31;65.45
24336;BME280;33098;52.400;16.880;2023-01-28T11:08:17;101892.12;;;2.38;65.48
24336;BME280;33098;52.400;16.880;2023-01-28T11:10:47;101893.69;;;2.47;65.58
24336;BME280;33098;52.400;16.880;2023-01-28T11:13:19;101899.48;;;2.56;65.59
24336;BME280;33098;52.400;16.880;2023-01-28T11:16:11;101895.33;;;2.61;65.50
24336;BME280;33098;52.400;16.880;2023-01-28T11:19:03;101899.61;;;2.65;65.26
24336;BME280;33098;52.400;16.880;2023-01-28T11:21:34;101899.21;;;2.67;65.32
24336;BME280;33098;52.400;16.880;2023-01-28T11:24:04;101898.64;;;2.62;65.08
24336;BME280;33098;52.400;16.880;2023-01-28T11:26:38;101891.90;;;2.65;65.39
24336;BME280;33098;52.400;16.880;2023-01-28T11:29:23;101886.07;;;2.59;65.15
24336;BME280;33098;52.400;16.880;2023-01-28T11:31:52;101881.78;;;2.55;65.05
24336;BME280;33098;52.400;16.880;2023-01-28T11:34:49;101885.54;;;2.51;64.96
24336;BME280;33098;52.400;16.880;2023-01-28T11:37:21;101877.45;;;2.44;64.90
24336;BME280;33098;52.400;16.880;2023-01-28T11:40:01;101875.70;;;2.44;65.19
24336;BME280;33098;52.400;16.880;2023-01-28T11:42:35;101876.08;;;2.51;65.35
24336;BME280;33098;52.400;16.880;2023-01-28T11:45:15;101878.05;;;2.57;65.39
24336;BME280;33098;52.400;16.880;2023-01-28T11:57:25;101876.36;;;2.77;65.23
24336;BME280;33098;52.400;16.880;2023-01-28T12:00:18;101870.57;;;2.78;65.21
24336;BME280;33098;52.400;16.880;2023-01-28T12:06:00;101866.30;;;2.73;64.83
24336;BME280;33098;52.400;16.880;2023-01-28T12:11:43;101862.58;;;2.67;65.02
24336;BME280;33098;52.400;16.880;2023-01-28T12:18:11;101854.89;;;2.73;65.03
24336;BME280;33098;52.400;16.880;2023-01-28T12:26:22;101845.57;;;2.52;64.63
24336;BME280;33098;52.400;16.880;2023-01-28T12:32:00;101842.24;;;2.36;64.59
24336;BME280;33098;52.400;16.880;2023-01-28T12:40:49;101837.55;;;2.26;65.10
24336;BME280;33098;52.400;16.880;2023-01-28T12:43:36;101831.98;;;2.48;65.60
24336;BME280;33098;52.400;16.880;2023-01-28T12:46:37;101829.11;;;2.59;65.44
24336;BME280;33098;52.400;16.880;2023-01-28T12:49:16;101837.86;;;2.67;65.39
24336;BME280;33098;52.400;16.880;2023-01-28T12:56:58;101840.05;;;2.70;65.08
24336;BME280;33098;52.400;16.880;2023-01-28T12:59:33;101841.16;;;2.76;65.04
24336;BME280;33098;52.400;16.880;2023-01-28T13:07:43;101848.48;;;2.71;64.89
24336;BME280;33098;52.400;16.880;2023-01-28T13:10:27;101849.05;;;2.68;64.51
24336;BME280;33098;52.400;16.880;2023-01-28T13:12:58;101849.53;;;2.62;64.62
24336;BME280;33098;52.400;16.880;2023-01-28T13:15:26;101857.17;;;2.66;64.44
24336;BME280;33098;52.400;16.880;2023-01-28T13:18:04;101858.75;;;2.66;64.50
24336;BME280;33098;52.400;16.880;2023-01-28T13:20:48;101859.62;;;2.66;64.43
24336;BME280;33098;52.400;16.880;2023-01-28T13:31:51;101863.94;;;2.69;64.18
24336;BME280;33098;52.400;16.880;2023-01-28T13:34:37;101862.02;;;2.68;64.04
24336;BME280;33098;52.400;16.880;2023-01-28T13:37:43;101862.71;;;2.68;64.12
24336;BME280;33098;52.400;16.880;2023-01-28T13:42:42;101863.20;;;2.63;63.65
24336;BME280;33098;52.400;16.880;2023-01-28T13:47:48;101861.20;;;2.58;63.62
24336;BME280;33098;52.400;16.880;2023-01-28T13:50:36;101861.20;;;2.58;63.82
24336;BME280;33098;52.400;16.880;2023-01-28T13:55:47;101862.46;;;2.49;63.48
24336;BME280;33098;52.400;16.880;2023-01-28T13:58:41;101857.80;;;2.45;63.19
24336;BME280;33098;52.400;16.880;2023-01-28T14:01:46;101859.79;;;2.43;63.21
24336;BME280;33098;52.400;16.880;2023-01-28T14:04:45;101866.03;;;2.37;63.17
24336;BME280;33098;52.400;16.880;2023-01-28T14:07:36;101872.04;;;2.44;63.32
24336;BME280;33098;52.400;16.880;2023-01-28T14:18:46;101861.78;;;2.56;63.59
24336;BME280;33098;52.400;16.880;2023-01-28T14:21:18;101861.39;;;2.57;63.43
24336;BME280;33098;52.400;16.880;2023-01-28T14:23:49;101859.23;;;2.60;63.41
24336;BME280;33098;52.400;16.880;2023-01-28T14:32:11;101852.40;;;2.28;63.04
24336;BME280;33098;52.400;16.880;2023-01-28T14:34:42;101858.11;;;2.39;63.34
24336;BME280;33098;52.400;16.880;2023-01-28T14:37:17;101857.67;;;2.52;63.33
24336;BME280;33098;52.400;16.880;2023-01-28T14:39:52;101857.91;;;2.57;63.36
24336;BME280;33098;52.400;16.880;2023-01-28T14:42:23;101846.67;;;2.57;63.17
24336;BME280;33098;52.400;16.880;2023-01-28T14:54:13;101843.39;;;2.56;63.26
24336;BME280;33098;52.400;16.880;2023-01-28T14:57:05;101844.36;;;2.59;63.17
24336;BME280;33098;52.400;16.880;2023-01-28T14:59:55;101843.48;;;2.59;62.91
24336;BME280;33098;52.400;16.880;2023-01-28T15:02:33;101835.63;;;2.50;63.12
24336;BME280;33098;52.400;16.880;2023-01-28T15:05:09;101834.99;;;2.39;62.76
24336;BME280;33098;52.400;16.880;2023-01-28T15:07:43;101835.84;;;2.33;62.77
24336;BME280;33098;52.400;16.880;2023-01-28T15:10:27;101833.13;;;2.28;62.72
24336;BME280;33098;52.400;16.880;2023-01-28T15:13:04;101833.89;;;2.25;62.67
24336;BME280;33098;52.400;16.880;2023-01-28T15:15:39;101827.23;;;2.17;62.79
24336;BME280;33098;52.400;16.880;2023-01-28T15:18:16;101826.73;;;1.99;62.22
24336;BME280;33098;52.400;16.880;2023-01-28T15:20:52;101833.85;;;1.93;62.66
24336;BME280;33098;52.400;16.880;2023-01-28T15:26:16;101831.60;;;1.65;61.92
24336;BME280;33098;52.400;16.880;2023-01-28T15:28:48;101829.15;;;1.56;62.26
24336;BME280;33098;52.400;16.880;2023-01-28T15:31:25;101832.17;;;1.54;62.46
24336;BME280;33098;52.400;16.880;2023-01-28T15:34:03;101834.38;;;1.66;63.12
24336;BME280;33098;52.400;16.880;2023-01-28T15:36:39;101826.55;;;1.73;63.10
24336;BME280;33098;52.400;16.880;2023-01-28T15:39:18;101825.52;;;1.72;63.15
24336;BME280;33098;52.400;16.880;2023-01-28T15:41:54;101819.14;;;1.67;62.85
24336;BME280;33098;52.400;16.880;2023-01-28T15:44:37;101818.23;;;1.59;62.79